Time;durP1;ratioP1;P1;durP2;ratioP2;P2;SDS_P1;SDS_P2;PMS_P1;PMS_P2;Temp;Humidity;BMP_temperature;BMP_pressure;BME280_temperature;BME280_humidity;BME280_pressure;Samples;Min_cycle;Max_cycle;Signal;HPM_P1;HPM_P2
2022/07/23 00:01:33;;;;;;;1.45;0.50;;;22.70;67.20;;;;;;5070664;28;20170;-69
2022/07/23 00:03:59;;;;;;;2.05;0.50;;;22.70;67.20;;;;;;5071813;28;20502;-69
2022/07/23 00:06:25;;;;;;;1.30;0.60;;;22.80;67.20;;;;;;5072451;28;20040;-69
2022/07/23 00:08:50;;;;;;;1.52;0.40;;;22.70;67.20;;;;;;5071403;28;20046;-69
2022/07/23 00:11:16;;;;;;;0.55;0.32;;;22.70;67.20;;;;;;5072092;28;20137;-69
2022/07/23 00:13:41;;;;;;;1.48;0.50;;;22.70;67.10;;;;;;5070958;28;20041;-69
2022/07/23 00:16:07;;;;;;;2.38;0.60;;;22.70;67.10;;;;;;5071221;28;20099;-69
2022/07/23 00:18:33;;;;;;;1.48;0.50;;;22.70;67.10;;;;;;5072116;28;20109;-69
2022/07/23 00:20:59;;;;;;;1.30;0.70;;;22.70;67.10;;;;;;5071256;28;20045;-70
2022/07/23 00:23:24;;;;;;;0.60;0.40;;;22.70;67.10;;;;;;5072346;28;20550;-70
2022/07/23 00:25:51;;;;;;;1.25;0.40;;;22.70;67.10;;;;;;5071840;28;20056;-70
2022/07/23 00:28:18;;;;;;;0.73;0.50;;;22.70;67.10;;;;;;5071291;28;20048;-70
2022/07/23 00:30:43;;;;;;;2.38;0.60;;;22.70;67.10;;;;;;5072136;28;20090;-70
2022/07/23 00:33:09;;;;;;;2.15;1.23;;;22.70;67.10;;;;;;5071084;28;20040;-70
2022/07/23 00:35:37;;;;;;;1.00;0.50;;;22.70;67.10;;;;;;5070244;28;20495;-70
2022/07/23 00:38:02;;;;;;;1.13;0.40;;;22.70;67.10;;;;;;5071743;28;20864;-69
2022/07/23 00:40:28;;;;;;;1.25;0.57;;;22.70;67.10;;;;;;5071974;28;20127;-70
2022/07/23 00:42:54;;;;;;;2.17;0.50;;;22.70;67.10;;;;;;5068415;28;20063;-70
2022/07/23 00:45:19;;;;;;;2.38;0.70;;;22.70;67.10;;;;;;5070891;28;20087;-70
2022/07/23 00:47:45;;;;;;;1.20;0.63;;;22.70;67.10;;;;;;5070777;28;20392;-70
2022/07/23 00:50:11;;;;;;;0.82;0.47;;;22.70;67.10;;;;;;5071175;28;20131;-70
2022/07/23 00:52:37;;;;;;;0.98;0.45;;;22.70;67.10;;;;;;5070755;28;20040;-69
2022/07/23 00:55:04;;;;;;;1.05;0.65;;;22.70;67.10;;;;;;5071686;28;20119;-69
2022/07/23 00:57:29;;;;;;;1.05;0.40;;;22.70;67.10;;;;;;5070008;28;20051;-70
2022/07/23 00:59:55;;;;;;;1.48;0.47;;;22.60;67.00;;;;;;5053529;28;20135;-70
2022/07/23 01:02:21;;;;;;;0.57;0.40;;;22.60;66.90;;;;;;5073742;28;20072;-69
2022/07/23 01:04:46;;;;;;;1.42;0.50;;;22.60;66.90;;;;;;5073167;28;20076;-70
2022/07/23 01:07:12;;;;;;;1.40;0.50;;;22.60;66.90;;;;;;5074141;28;20053;-69
2022/07/23 01:09:37;;;;;;;1.85;0.70;;;22.60;67.00;;;;;;5075649;28;20056;-70
2022/07/23 01:12:03;;;;;;;1.60;0.40;;;22.60;66.90;;;;;;5072921;28;20182;-69
2022/07/23 01:14:29;;;;;;;1.23;0.52;;;22.60;66.90;;;;;;5079997;28;20036;-70
2022/07/23 01:16:54;;;;;;;0.93;0.40;;;22.60;66.90;;;;;;5094164;28;20503;-69
2022/07/23 01:19:20;;;;;;;0.65;0.40;;;22.60;66.90;;;;;;5093375;28;20051;-70
2022/07/23 01:21:50;;;;;;;0.65;0.50;;;22.60;66.90;;;;;;5094075;28;20036;-69
2022/07/23 01:24:16;;;;;;;1.67;0.60;;;22.60;66.90;;;;;;5095042;28;20052;-70
2022/07/23 01:26:43;;;;;;;2.22;0.50;;;22.60;66.90;;;;;;5095522;28;20063;-70
2022/07/23 01:29:08;;;;;;;1.13;0.50;;;22.60;66.80;;;;;;5093975;28;20044;-70
2022/07/23 01:31:34;;;;;;;0.65;0.50;;;22.60;66.90;;;;;;5093711;28;20040;-70
2022/07/23 01:34:00;;;;;;;1.05;0.50;;;22.60;66.90;;;;;;5095209;28;20047;-70
2022/07/23 01:36:25;;;;;;;1.10;0.50;;;22.60;66.80;;;;;;5093530;28;20377;-69
2022/07/23 01:38:51;;;;;;;1.92;0.50;;;22.50;66.80;;;;;;5094118;28;20119;-70
2022/07/23 01:41:16;;;;;;;0.70;0.45;;;22.50;66.80;;;;;;5093825;28;20537;-70
2022/07/23 01:43:42;;;;;;;1.10;0.50;;;22.50;66.80;;;;;;5095340;28;20113;-69
2022/07/23 01:46:07;;;;;;;0.88;0.40;;;22.60;66.90;;;;;;5094091;28;20059;-70
2022/07/23 01:48:33;;;;;;;1.33;0.50;;;22.50;66.80;;;;;;5093823;28;20502;-70
2022/07/23 01:50:58;;;;;;;0.90;0.47;;;22.50;66.80;;;;;;5093876;28;20126;-70
2022/07/23 01:53:24;;;;;;;1.23;0.50;;;22.50;66.80;;;;;;5093226;28;20039;-70
2022/07/23 01:55:49;;;;;;;0.77;0.40;;;22.50;66.80;;;;;;5094468;28;20051;-70
2022/07/23 01:58:15;;;;;;;1.33;0.47;;;22.50;66.80;;;;;;5094663;28;20085;-70
2022/07/23 02:00:41;;;;;;;2.30;0.57;;;22.50;66.80;;;;;;5093227;28;20047;-70
2022/07/23 02:03:06;;;;;;;2.28;0.60;;;22.50;66.80;;;;;;5091786;28;20051;-69
2022/07/23 02:05:32;;;;;;;1.60;0.60;;;22.50;66.80;;;;;;5093096;28;20048;-69
2022/07/23 02:07:58;;;;;;;1.85;0.50;;;22.50;66.70;;;;;;5093886;28;20535;-69
2022/07/23 02:10:24;;;;;;;1.08;0.52;;;22.50;66.70;;;;;;5094794;28;20079;-70
2022/07/23 02:12:50;;;;;;;1.10;0.52;;;22.50;66.70;;;;;;5094099;28;20067;-70
2022/07/23 02:15:15;;;;;;;1.38;0.50;;;22.50;66.70;;;;;;5094215;28;20047;-70
2022/07/23 02:17:41;;;;;;;1.10;0.52;;;22.50;66.70;;;;;;5094908;28;20050;-69
2022/07/23 02:20:07;;;;;;;0.95;0.40;;;22.50;66.70;;;;;;5093138;28;20048;-69
2022/07/23 02:22:33;;;;;;;1.02;0.50;;;22.50;66.70;;;;;;5094002;28;20077;-69
2022/07/23 02:24:58;;;;;;;0.70;0.40;;;22.50;66.70;;;;;;5094055;28;20145;-69
2022/07/23 02:27:24;;;;;;;1.15;0.52;;;22.50;66.70;;;;;;5094213;28;20048;-69
2022/07/23 02:29:50;;;;;;;1.10;0.50;;;22.50;66.70;;;;;;5092953;28;20047;-69
2022/07/23 02:32:15;;;;;;;1.35;0.40;;;22.50;66.60;;;;;;5094530;28;20040;-69
2022/07/23 02:34:41;;;;;;;0.75;0.43;;;22.50;66.70;;;;;;5092028;28;20044;-69
2022/07/23 02:37:08;;;;;;;1.45;0.60;;;22.50;66.70;;;;;;5093874;28;20087;-69
2022/07/23 02:39:34;;;;;;;0.77;0.40;;;22.50;66.70;;;;;;5094093;28;20047;-69
2022/07/23 02:42:00;;;;;;;1.88;0.50;;;22.50;66.70;;;;;;5092996;28;20482;-69
2022/07/23 02:44:25;;;;;;;1.48;0.60;;;22.50;66.60;;;;;;5092837;28;20123;-69
2022/07/23 02:46:51;;;;;;;1.05;0.40;;;22.40;66.60;;;;;;5093937;28;20124;-69
2022/07/23 02:49:16;;;;;;;2.58;0.43;;;22.40;66.60;;;;;;5093281;28;20483;-69
2022/07/23 02:51:42;;;;;;;1.00;0.50;;;22.40;66.50;;;;;;5094011;28;20387;-70
2022/07/23 02:54:08;;;;;;;1.02;0.50;;;22.50;66.60;;;;;;5092707;28;20086;-70
2022/07/23 02:56:33;;;;;;;0.73;0.40;;;22.40;66.60;;;;;;5092083;28;20071;-69
2022/07/23 02:58:59;;;;;;;1.58;0.40;;;22.40;66.60;;;;;;5092209;28;20079;-69
2022/07/23 03:01:24;;;;;;;1.08;0.50;;;22.40;66.60;;;;;;5093449;28;20131;-69
2022/07/23 03:03:50;;;;;;;0.82;0.50;;;22.40;67.20;;;;;;5092835;28;20230;-69
2022/07/23 03:06:16;;;;;;;1.13;0.55;;;22.40;66.60;;;;;;5093341;28;20044;-69
2022/07/23 03:08:41;;;;;;;1.15;0.55;;;22.40;66.60;;;;;;5093600;28;20093;-69
2022/07/23 03:11:10;;;;;;;1.27;0.50;;;22.40;66.60;;;;;;5092434;28;20134;-69
2022/07/23 03:13:37;;;;;;;1.50;0.50;;;22.40;66.60;;;;;;5092486;28;20089;-70
2022/07/23 03:16:03;;;;;;;1.55;0.50;;;22.40;66.60;;;;;;5092973;28;20345;-69
2022/07/23 03:18:28;;;;;;;0.60;0.45;;;22.40;66.60;;;;;;5091219;28;20040;-69
2022/07/23 03:20:54;;;;;;;0.95;0.40;;;22.40;66.60;;;;;;5091637;28;20048;-70
2022/07/23 03:23:19;;;;;;;0.82;0.40;;;22.40;66.60;;;;;;5091973;28;20047;-69
2022/07/23 03:25:48;;;;;;;0.73;0.40;;;22.40;66.50;;;;;;5091201;28;20062;-69
2022/07/23 03:28:15;;;;;;;1.35;0.52;;;22.40;66.60;;;;;;5093152;28;20040;-69
2022/07/23 03:30:41;;;;;;;1.03;0.50;;;22.40;66.60;;;;;;5091791;28;20059;-69
2022/07/23 03:33:07;;;;;;;1.10;0.40;;;22.40;66.60;;;;;;5091935;28;20044;-69
2022/07/23 03:35:32;;;;;;;1.08;0.40;;;22.40;66.50;;;;;;5092947;28;20043;-69
2022/07/23 03:37:58;;;;;;;0.60;0.40;;;22.40;66.50;;;;;;5090546;28;20047;-69
2022/07/23 03:40:23;;;;;;;0.77;0.40;;;22.40;66.50;;;;;;5091952;28;20052;-69
2022/07/23 03:42:49;;;;;;;1.02;0.50;;;22.40;66.50;;;;;;5090747;28;20047;-69
2022/07/23 03:45:14;;;;;;;0.38;0.30;;;22.40;66.50;;;;;;5091730;28;20048;-69
2022/07/23 03:47:40;;;;;;;0.85;0.70;;;22.30;66.40;;;;;;5091239;28;20036;-69
2022/07/23 03:50:06;;;;;;;1.13;0.43;;;22.30;66.40;;;;;;5092114;28;20046;-70
2022/07/23 03:52:31;;;;;;;1.67;0.57;;;22.30;66.50;;;;;;5090916;28;20093;-69
2022/07/23 03:54:57;;;;;;;0.93;0.50;;;22.30;66.50;;;;;;5092846;28;20100;-69
2022/07/23 03:57:22;;;;;;;1.45;0.43;;;22.30;66.50;;;;;;5093078;28;20036;-70
2022/07/23 03:59:48;;;;;;;0.65;0.40;;;22.30;66.50;;;;;;5091796;28;20476;-69
2022/07/23 04:02:13;;;;;;;2.13;0.60;;;22.30;66.40;;;;;;5072142;28;20447;-69
2022/07/23 04:04:39;;;;;;;0.93;0.40;;;22.30;66.40;;;;;;5050523;28;20124;-69
2022/07/23 04:07:06;;;;;;;0.65;0.50;;;22.30;66.40;;;;;;5050624;28;20037;-69
2022/07/23 04:09:31;;;;;;;1.63;0.40;;;22.30;66.40;;;;;;5052029;28;20064;-69
2022/07/23 04:11:57;;;;;;;1.13;0.52;;;22.30;66.40;;;;;;5052224;28;20555;-70
2022/07/23 04:14:22;;;;;;;0.85;0.40;;;22.30;66.40;;;;;;5051487;28;20063;-70
2022/07/23 04:16:48;;;;;;;0.68;0.50;;;22.30;66.40;;;;;;5051052;28;20518;-69
2022/07/23 04:19:14;;;;;;;0.80;0.40;;;22.30;66.40;;;;;;5052109;28;20051;-69
2022/07/23 04:21:39;;;;;;;0.80;0.45;;;22.30;66.30;;;;;;5051476;28;20056;-69
2022/07/23 04:24:05;;;;;;;1.23;0.68;;;22.30;66.40;;;;;;5050726;28;20488;-69
2022/07/23 04:26:30;;;;;;;1.27;0.68;;;22.30;66.40;;;;;;5052151;28;20064;-69
2022/07/23 04:28:56;;;;;;;0.77;0.38;;;22.20;66.30;;;;;;5049641;28;20053;-69
2022/07/23 04:31:22;;;;;;;1.02;0.30;;;22.20;66.30;;;;;;5051024;28;20045;-69
2022/07/23 04:33:47;;;;;;;1.10;0.40;;;22.30;66.50;;;;;;5052072;28;20049;-69
2022/07/23 04:36:13;;;;;;;1.08;0.60;;;22.30;66.50;;;;;;5050911;28;20439;-69
2022/07/23 04:38:38;;;;;;;1.13;0.50;;;22.30;66.60;;;;;;5056545;28;20444;-69
2022/07/23 04:41:04;;;;;;;1.60;0.50;;;22.30;66.60;;;;;;5055727;28;20515;-69
2022/07/23 04:43:29;;;;;;;0.60;0.50;;;22.30;66.70;;;;;;5055684;28;20044;-69
2022/07/23 04:45:55;;;;;;;0.98;0.50;;;22.30;66.70;;;;;;5054577;28;20048;-69
2022/07/23 04:48:20;;;;;;;1.35;0.40;;;22.30;66.70;;;;;;5054975;28;20505;-69
2022/07/23 04:50:46;;;;;;;0.95;0.60;;;22.30;66.70;;;;;;5054229;28;20051;-70
2022/07/23 04:53:11;;;;;;;0.73;0.40;;;22.30;66.70;;;;;;5054954;28;20045;-69
2022/07/23 04:55:37;;;;;;;0.73;0.32;;;22.30;66.70;;;;;;5053963;28;20064;-69
2022/07/23 04:58:03;;;;;;;1.13;0.50;;;22.30;66.80;;;;;;5054512;28;20049;-69
2022/07/23 05:00:28;;;;;;;1.60;0.40;;;22.30;66.70;;;;;;5055784;28;20049;-69
2022/07/23 05:02:54;;;;;;;0.90;0.40;;;22.40;66.70;;;;;;5054909;28;20051;-69
2022/07/23 05:05:19;;;;;;;1.55;0.57;;;22.40;66.70;;;;;;5054220;28;20159;-69
2022/07/23 05:07:45;;;;;;;0.90;0.50;;;22.40;66.80;;;;;;5055481;28;20408;-69
2022/07/23 05:10:10;;;;;;;0.40;0.35;;;22.40;66.70;;;;;;5053342;28;20049;-69
2022/07/23 05:12:36;;;;;;;1.15;0.50;;;22.40;66.70;;;;;;5055742;28;20047;-70
2022/07/23 05:15:01;;;;;;;0.80;0.60;;;22.40;66.70;;;;;;5055471;28;20047;-69
2022/07/23 05:17:27;;;;;;;1.08;0.50;;;22.40;66.70;;;;;;5053290;28;20045;-69
2022/07/23 05:19:52;;;;;;;1.58;0.40;;;22.40;66.70;;;;;;5055008;28;20043;-69
2022/07/23 05:22:18;;;;;;;1.23;0.88;;;22.40;66.70;;;;;;5063806;28;20123;-65
2022/07/23 05:24:43;;;;;;;1.60;0.65;;;22.40;66.70;;;;;;5094182;28;20060;-66
2022/07/23 05:27:09;;;;;;;1.08;0.60;;;22.40;66.50;;;;;;5095566;28;20032;-66
2022/07/23 05:29:35;;;;;;;1.83;0.40;;;22.40;66.50;;;;;;5093986;28;20468;-66
2022/07/23 05:32:00;;;;;;;2.97;0.55;;;22.40;66.50;;;;;;5093062;28;20036;-66
2022/07/23 05:34:26;;;;;;;1.50;0.60;;;22.40;66.50;;;;;;5093906;28;20056;-67
2022/07/23 05:36:51;;;;;;;3.38;0.50;;;22.40;66.40;;;;;;5093886;28;20043;-67
2022/07/23 05:39:17;;;;;;;1.25;0.68;;;22.40;66.50;;;;;;5093562;28;20050;-67
2022/07/23 05:41:43;;;;;;;2.72;0.60;;;22.40;66.50;;;;;;5093644;28;20499;-67
2022/07/23 05:44:08;;;;;;;0.75;0.50;;;22.40;66.50;;;;;;5094137;28;20043;-66
2022/07/23 05:46:34;;;;;;;1.98;0.50;;;22.40;66.50;;;;;;5094454;28;20115;-66
2022/07/23 05:48:59;;;;;;;1.25;0.60;;;22.40;66.50;;;;;;5093554;28;20048;-67
2022/07/23 05:51:25;;;;;;;2.03;0.63;;;22.40;66.50;;;;;;5095022;28;20043;-67
2022/07/23 05:53:50;;;;;;;3.05;0.50;;;22.40;66.50;;;;;;5094218;28;20160;-67
2022/07/23 05:56:18;;;;;;;1.88;0.60;;;22.40;66.50;;;;;;5093691;28;20032;-67
2022/07/23 05:58:43;;;;;;;2.78;0.57;;;22.40;66.50;;;;;;5093831;28;20070;-65
2022/07/23 06:01:09;;;;;;;2.55;0.60;;;22.40;66.50;;;;;;5095362;28;20040;-67
2022/07/23 06:03:34;;;;;;;3.17;0.88;;;22.40;66.60;;;;;;5094059;28;20078;-67
2022/07/23 06:06:00;;;;;;;3.67;0.60;;;22.40;66.70;;;;;;5093562;28;20043;-66
2022/07/23 06:08:25;;;;;;;2.78;0.60;;;22.50;66.80;;;;;;5094867;28;20518;-67
2022/07/23 06:10:51;;;;;;;1.73;0.70;;;22.40;66.80;;;;;;5094077;28;20040;-68
2022/07/23 06:13:20;;;;;;;1.75;0.50;;;22.50;66.90;;;;;;5094000;28;20036;-68
2022/07/23 06:15:45;;;;;;;1.75;0.60;;;22.50;67.60;;;;;;5093147;28;20093;-67
2022/07/23 06:18:11;;;;;;;2.72;0.80;;;22.50;67.00;;;;;;5093294;28;20044;-64
2022/07/23 06:20:36;;;;;;;1.88;0.55;;;22.50;67.10;;;;;;5093787;28;20050;-69
2022/07/23 06:23:02;;;;;;;3.00;0.65;;;22.50;67.10;;;;;;5094276;28;20089;-68
2022/07/23 06:25:27;;;;;;;2.00;0.80;;;22.50;67.10;;;;;;5094388;28;20419;-69
2022/07/23 06:27:53;;;;;;;1.45;0.50;;;22.50;67.00;;;;;;5091844;28;20403;-69
2022/07/23 06:30:18;;;;;;;1.85;0.50;;;22.50;66.90;;;;;;5092794;28;20126;-68
2022/07/23 06:32:47;;;;;;;1.13;0.50;;;22.50;66.90;;;;;;5094349;28;20040;-68
2022/07/23 06:35:13;;;;;;;1.77;0.50;;;22.50;66.90;;;;;;5093368;28;20395;-66
2022/07/23 06:37:38;;;;;;;2.00;0.60;;;22.50;67.00;;;;;;5086348;28;20460;-68
2022/07/23 06:40:04;;;;;;;1.48;0.50;;;22.50;67.00;;;;;;5073504;28;20041;-68
2022/07/23 06:42:30;;;;;;;3.03;0.60;;;22.50;67.10;;;;;;5073150;28;20154;-68
2022/07/23 06:44:55;;;;;;;3.40;0.60;;;22.50;67.10;;;;;;5072015;28;20070;-68
2022/07/23 06:47:21;;;;;;;1.27;0.50;;;22.50;67.20;;;;;;5074108;28;20056;-67
2022/07/23 06:49:47;;;;;;;2.95;0.80;;;22.50;67.20;;;;;;5072228;28;20033;-68
2022/07/23 06:52:12;;;;;;;2.22;1.00;;;22.50;67.20;;;;;;5071580;28;20446;-69
2022/07/23 06:54:38;;;;;;;2.10;0.70;;;22.50;67.20;;;;;;5073139;28;20037;-67
2022/07/23 06:57:03;;;;;;;0.82;0.43;;;22.50;67.10;;;;;;5072345;28;20082;-68
2022/07/23 06:59:29;;;;;;;2.22;0.50;;;22.50;67.20;;;;;;5072549;28;20047;-66
2022/07/23 07:01:54;;;;;;;1.75;0.82;;;22.50;67.20;;;;;;5073392;28;20044;-67
2022/07/23 07:04:20;;;;;;;0.43;0.40;;;22.50;67.20;;;;;;5093353;28;20036;-68
2022/07/23 07:06:45;;;;;;;1.48;0.70;;;22.50;67.20;;;;;;5092486;28;20043;-68
2022/07/23 07:09:11;;;;;;;1.25;0.60;;;22.50;67.20;;;;;;5092748;28;20048;-68
2022/07/23 07:11:36;;;;;;;1.77;0.57;;;22.50;67.00;;;;;;5093853;28;20043;-67
2022/07/23 07:14:04;;;;;;;0.75;0.47;;;22.50;67.00;;;;;;5093334;28;20047;-68
2022/07/23 07:16:29;;;;;;;0.90;0.52;;;22.50;67.10;;;;;;5092780;28;20410;-69
2022/07/23 07:18:55;;;;;;;2.05;0.60;;;22.50;67.10;;;;;;5092908;28;20048;-69
2022/07/23 07:21:20;;;;;;;1.63;0.65;;;22.50;67.20;;;;;;5091221;28;20040;-68
2022/07/23 07:23:46;;;;;;;1.33;0.60;;;22.50;67.10;;;;;;5072158;28;20141;-68
2022/07/23 07:26:11;;;;;;;1.30;0.50;;;22.60;67.20;;;;;;5071640;28;20059;-68
2022/07/23 07:28:37;;;;;;;1.40;0.60;;;22.60;67.80;;;;;;5071586;28;20071;-68
2022/07/23 07:31:03;;;;;;;3.70;0.70;;;22.60;67.20;;;;;;5071001;28;20078;-68
2022/07/23 07:33:28;;;;;;;3.45;0.73;;;22.60;67.10;;;;;;5072847;28;20495;-68
2022/07/23 07:35:54;;;;;;;1.48;0.60;;;22.60;67.10;;;;;;5072321;28;20425;-68
2022/07/23 07:38:19;;;;;;;1.30;0.50;;;22.60;67.10;;;;;;5071967;28;20041;-69
2022/07/23 07:40:45;;;;;;;1.10;0.60;;;22.60;67.10;;;;;;5072324;28;20399;-70
2022/07/23 07:43:11;;;;;;;1.42;0.60;;;22.60;67.10;;;;;;5072906;28;20042;-68
2022/07/23 07:45:36;;;;;;;2.75;0.77;;;22.60;67.10;;;;;;5070232;28;20056;-68
2022/07/23 07:48:02;;;;;;;2.88;0.60;;;22.60;67.10;;;;;;5070803;28;20051;-69
2022/07/23 07:50:28;;;;;;;1.23;0.50;;;22.60;67.10;;;;;;5071012;28;20075;-69
2022/07/23 07:52:53;;;;;;;3.20;0.85;;;22.60;67.10;;;;;;5070272;28;20123;-69
2022/07/23 07:55:19;;;;;;;2.03;0.63;;;22.60;67.00;;;;;;5090883;28;20048;-68
2022/07/23 07:57:44;;;;;;;3.08;0.60;;;22.70;67.10;;;;;;5084703;28;20055;-68
2022/07/23 08:00:10;;;;;;;1.50;0.60;;;22.60;67.00;;;;;;5071796;28;20044;-67
2022/07/23 08:02:47;;;;;;;0.98;0.50;;;22.60;67.00;;;;;;5072181;28;20044;-67
2022/07/23 08:05:13;;;;;;;1.85;0.50;;;22.70;67.00;;;;;;5070526;28;20055;-68
2022/07/23 08:07:39;;;;;;;1.05;0.60;;;22.70;67.00;;;;;;5071081;28;20044;-68
2022/07/23 08:10:09;;;;;;;1.15;0.50;;;22.70;67.00;;;;;;5071835;28;20052;-70
2022/07/23 08:12:44;;;;;;;0.90;0.50;;;22.70;66.90;;;;;;5071755;28;20368;-68
2022/07/23 08:15:10;;;;;;;1.85;0.50;;;22.70;66.90;;;;;;5072261;28;20040;-68
2022/07/23 08:17:36;;;;;;;2.45;0.52;;;22.70;66.90;;;;;;5072315;28;20055;-68
2022/07/23 08:20:02;;;;;;;1.50;0.60;;;22.70;66.80;;;;;;5069938;28;20055;-68
2022/07/23 08:22:53;;;;;;;1.63;0.52;;;22.70;66.80;;;;;;5072423;28;20120;-68
2022/07/23 08:25:45;;;;;;;1.48;0.47;;;22.70;66.80;;;;;;5070963;28;20052;-68
2022/07/23 08:28:11;;;;;;;1.50;0.70;;;22.70;66.70;;;;;;5070216;28;20071;-68
2022/07/23 08:30:37;;;;;;;2.00;0.70;;;22.70;66.70;;;;;;5070830;28;20120;-68
2022/07/23 08:33:15;;;;;;;1.17;0.60;;;22.80;66.80;;;;;;5071828;28;20044;-68
2022/07/23 08:35:46;;;;;;;1.08;0.50;;;22.70;66.60;;;;;;5071427;28;20040;-66
2022/07/23 08:38:15;;;;;;;2.03;0.50;;;22.80;66.70;;;;;;5070266;28;20047;-67
2022/07/23 08:40:42;;;;;;;0.75;0.50;;;22.80;66.70;;;;;;5071447;28;20066;-67
2022/07/23 08:43:09;;;;;;;1.40;0.53;;;22.80;66.70;;;;;;5070928;28;20056;-67
2022/07/23 08:45:42;;;;;;;1.42;0.40;;;22.80;66.60;;;;;;5070720;28;20044;-66
2022/07/23 08:48:10;;;;;;;1.25;0.60;;;22.80;66.60;;;;;;5069968;28;20500;-71
2022/07/23 08:50:41;;;;;;;;;;;22.80;66.60;;;;;;5054305;28;20078;-66
2022/07/23 08:53:07;;;;;;;1.48;0.50;;;22.80;66.50;;;;;;5072045;28;19920;-65
2022/07/23 08:55:32;;;;;;;4.35;0.60;;;22.80;66.50;;;;;;5071117;28;20041;-66
2022/07/23 08:57:58;;;;;;;2.35;0.60;;;22.80;66.30;;;;;;5070359;28;20040;-67
2022/07/23 09:00:23;;;;;;;1.40;0.50;;;22.80;66.30;;;;;;5071940;28;20048;-65
2022/07/23 09:02:50;;;;;;;3.88;0.70;;;22.80;67.00;;;;;;5069394;28;20048;-67
2022/07/23 09:05:16;;;;;;;0.95;0.52;;;22.80;66.50;;;;;;5072353;28;20068;-67
2022/07/23 09:08:24;;;;;;;2.97;0.68;;;22.80;66.40;;;;;;5072269;28;20040;-66
2022/07/23 09:10:57;;;;;;;1.92;0.60;;;22.80;66.20;;;;;;5065006;28;20056;-66
2022/07/23 09:13:46;;;;;;;1.77;0.60;;;22.80;66.20;;;;;;5070747;28;20557;-66
2022/07/23 09:16:14;;;;;;;1.35;0.60;;;22.80;66.20;;;;;;5070922;28;20408;-66
2022/07/23 09:18:39;;;;;;;1.95;0.73;;;22.80;66.10;;;;;;5071316;28;20538;-66
2022/07/23 09:21:09;;;;;;;3.15;0.70;;;22.80;66.00;;;;;;5070302;28;20143;-66
2022/07/23 09:23:39;;;;;;;2.70;0.70;;;22.80;65.90;;;;;;5073660;28;20036;-66
2022/07/23 09:26:17;;;;;;;0.75;0.50;;;22.80;65.80;;;;;;5073581;28;20057;-66
2022/07/23 09:28:58;;;;;;;2.95;0.50;;;22.80;65.70;;;;;;5075125;28;20044;-67
2022/07/23 09:31:24;;;;;;;2.08;0.50;;;22.80;65.70;;;;;;5073573;28;20049;-65
2022/07/23 09:33:50;;;;;;;2.65;0.50;;;22.80;65.70;;;;;;5074937;28;20056;-64
2022/07/23 09:36:15;;;;;;;3.60;0.85;;;22.80;65.70;;;;;;5074993;28;20040;-67
2022/07/23 09:38:49;;;;;;;4.45;0.90;;;22.80;65.70;;;;;;5072693;28;20446;-66
2022/07/23 09:41:14;;;;;;;6.85;1.65;;;22.80;65.70;;;;;;5073197;28;20040;-69
2022/07/23 09:43:40;;;;;;;5.88;1.95;;;22.80;65.80;;;;;;5074134;28;20124;-65
2022/07/23 09:46:23;;;;;;;6.25;2.17;;;22.80;65.80;;;;;;5072912;28;20033;-66
2022/07/23 09:48:48;;;;;;;6.07;1.88;;;22.80;65.60;;;;;;5073236;28;20369;-65
2022/07/23 09:51:20;;;;;;;8.45;2.08;;;22.80;65.60;;;;;;5073099;28;20174;-66
2022/07/23 09:53:46;;;;;;;8.70;2.63;;;22.80;65.60;;;;;;5074976;28;20041;-67
2022/07/23 09:56:12;;;;;;;9.88;2.60;;;22.80;65.70;;;;;;5084033;28;20048;-66
2022/07/23 09:58:43;;;;;;;8.05;2.40;;;22.80;65.70;;;;;;5073073;28;20043;-66
2022/07/23 10:01:10;;;;;;;9.23;2.22;;;22.80;65.80;;;;;;5073299;28;20295;-66
2022/07/23 10:03:35;;;;;;;9.52;1.98;;;22.80;65.70;;;;;;5073671;28;20040;-66
2022/07/23 10:06:01;;;;;;;6.43;1.75;;;22.80;65.50;;;;;;5073695;28;20106;-69
2022/07/23 10:08:26;;;;;;;8.55;2.03;;;22.80;65.40;;;;;;5056564;28;20044;-64
2022/07/23 10:10:52;;;;;;;5.70;1.70;;;22.80;65.40;;;;;;5074091;28;20087;-66
2022/07/23 10:15:43;;;;;;;8.55;2.22;;;22.90;65.50;;;;;;5073104;28;20170;-66
2022/07/23 10:18:10;;;;;;;10.68;2.15;;;22.90;65.50;;;;;;5073719;28;20123;-65
2022/07/23 10:20:35;;;;;;;10.52;2.60;;;22.90;65.50;;;;;;5072321;28;20048;-72
2022/07/23 10:23:32;;;;;;;8.13;1.92;;;22.90;65.50;;;;;;5073085;28;20044;-64
2022/07/23 10:26:07;;;;;;;7.70;2.65;;;22.90;65.20;;;;;;5073187;28;20044;-66
2022/07/23 10:29:00;;;;;;;5.13;1.77;;;22.90;65.30;;;;;;5073006;28;20044;-65
2022/07/23 10:31:38;;;;;;;8.82;1.95;;;22.90;65.40;;;;;;5073419;28;20484;-64
2022/07/23 10:34:06;;;;;;;6.63;2.20;;;22.90;65.30;;;;;;5054902;28;20048;-65
2022/07/23 10:36:46;;;;;;;8.57;2.17;;;22.90;65.40;;;;;;5074330;28;20048;-66
2022/07/23 10:39:22;;;;;;;9.45;2.25;;;22.90;65.40;;;;;;5072906;28;20395;-66
2022/07/23 10:41:47;;;;;;;8.95;2.22;;;22.90;65.40;;;;;;5071910;28;20044;-65
2022/07/23 10:44:19;;;;;;;5.57;1.75;;;23.00;65.50;;;;;;5086320;28;20051;-67
2022/07/23 10:49:35;;;;;;;7.93;1.88;;;23.00;65.40;;;;;;5094126;28;20104;-66
2022/07/23 10:52:17;;;;;;;8.70;2.30;;;23.00;65.30;;;;;;5093562;28;20123;-66
2022/07/23 10:54:51;;;;;;;7.72;1.90;;;23.00;65.20;;;;;;5092851;28;20040;-67
2022/07/23 10:57:18;;;;;;;6.50;1.65;;;23.00;65.20;;;;;;5073750;28;20059;-66
2022/07/23 11:00:11;;;;;;;4.47;1.50;;;23.00;65.10;;;;;;5073050;28;20119;-67
2022/07/23 11:02:37;;;;;;;6.38;1.77;;;23.00;65.00;;;;;;5072772;28;20380;-67
2022/07/23 11:05:11;;;;;;;5.28;1.70;;;23.00;65.00;;;;;;5072927;28;20400;-66
2022/07/23 11:07:57;;;;;;;3.80;1.33;;;23.00;64.80;;;;;;5072007;28;20044;-67
2022/07/23 11:10:34;;;;;;;5.80;1.73;;;23.00;64.80;;;;;;5057170;28;20044;-66
2022/07/23 11:13:22;;;;;;;5.90;1.90;;;23.00;64.80;;;;;;5073195;28;20093;-66
2022/07/23 11:16:02;;;;;;;4.93;1.58;;;23.00;64.60;;;;;;5071761;28;20343;-67
2022/07/23 11:18:40;;;;;;;8.98;1.58;;;23.00;64.60;;;;;;5071140;28;20048;-65
2022/07/23 11:21:31;;;;;;;7.18;1.50;;;23.00;64.50;;;;;;5070860;28;20045;-66
2022/07/23 11:23:57;;;;;;;5.90;1.65;;;23.10;64.50;;;;;;5068351;28;20040;-66
2022/07/23 11:26:41;;;;;;;4.63;1.38;;;23.00;64.50;;;;;;5071149;28;20059;-66
2022/07/23 11:29:27;;;;;;;5.90;1.60;;;23.10;64.40;;;;;;5089311;28;20040;-60
2022/07/23 11:32:05;;;;;;;7.22;1.58;;;23.10;64.40;;;;;;5092883;28;20053;-63
2022/07/23 11:34:43;;;;;;;7.00;1.10;;;23.00;64.00;;;;;;5093323;28;20075;-63
2022/07/23 11:37:10;;;;;;;9.10;1.35;;;23.00;62.90;;;;;;5092209;28;20055;-63
2022/07/23 11:39:36;;;;;;;2.38;1.10;;;23.00;62.90;;;;;;5091811;28;20047;-63
2022/07/23 11:42:04;;;;;;;6.65;1.20;;;23.10;62.60;;;;;;5093051;28;20378;-63
2022/07/23 11:44:34;;;;;;;4.13;1.08;;;23.10;62.10;;;;;;5090934;28;20048;-63
2022/07/23 11:47:01;;;;;;;4.38;1.20;;;23.10;61.60;;;;;;5092452;28;20052;-63
2022/07/23 11:49:26;;;;;;;4.82;1.13;;;23.20;61.50;;;;;;5092902;28;20070;-63
2022/07/23 11:52:08;;;;;;;4.78;1.98;;;23.20;61.10;;;;;;5091649;28;20394;-63
2022/07/23 11:54:35;;;;;;;4.80;1.20;;;23.20;60.80;;;;;;5093011;28;20503;-63
2022/07/23 11:57:01;;;;;;;2.70;1.25;;;23.20;60.50;;;;;;5092322;28;20402;-63
2022/07/23 11:59:27;;;;;;;3.53;1.00;;;23.20;60.10;;;;;;5090713;28;20136;-63
2022/07/23 12:01:58;;;;;;;2.53;1.10;;;23.20;59.90;;;;;;5091537;28;20126;-63
2022/07/23 12:04:24;;;;;;;2.30;0.88;;;23.30;59.80;;;;;;5090642;28;20044;-63
2022/07/23 12:06:49;;;;;;;3.53;1.40;;;23.20;59.80;;;;;;5092505;28;20039;-64
2022/07/23 12:09:15;;;;;;;1.83;0.80;;;23.30;59.60;;;;;;5076739;28;20097;-64
2022/07/23 12:11:57;;;;;;;3.08;0.80;;;23.20;59.40;;;;;;5070308;28;20361;-64
2022/07/23 12:14:23;;;;;;;2.45;0.80;;;23.20;59.20;;;;;;5072629;28;20044;-64
2022/07/23 12:17:07;;;;;;;1.00;0.60;;;23.20;58.80;;;;;;5071535;28;20043;-62
2022/07/23 12:19:33;;;;;;;4.38;0.90;;;23.20;58.10;;;;;;5068161;28;20442;-70
2022/07/23 12:21:59;;;;;;;6.10;0.85;;;23.20;58.20;;;;;;5054263;28;20515;-63
2022/07/23 12:24:24;;;;;;;2.72;1.08;;;23.20;57.70;;;;;;5071000;28;20096;-64
2022/07/23 12:27:08;;;;;;;3.00;1.00;;;23.20;57.60;;;;;;5069846;28;20052;-62
2022/07/23 12:29:35;;;;;;;2.50;0.70;;;23.20;57.50;;;;;;5070883;28;20044;-63
2022/07/23 12:32:01;;;;;;;2.95;0.80;;;23.10;57.50;;;;;;5071307;28;20671;-64
2022/07/23 12:34:27;;;;;;;3.17;1.05;;;23.10;56.70;;;;;;5070402;28;20048;-64
2022/07/23 12:36:52;;;;;;;3.55;1.00;;;23.10;56.10;;;;;;5071620;28;20041;-64
2022/07/23 12:39:31;;;;;;;2.78;0.80;;;23.10;56.10;;;;;;5072171;28;20044;-65
2022/07/23 12:41:57;;;;;;;2.85;0.75;;;23.10;56.10;;;;;;5072139;28;20045;-64
2022/07/23 12:44:22;;;;;;;2.60;0.95;;;23.10;56.10;;;;;;5072382;28;20087;-64
2022/07/23 12:46:54;;;;;;;4.93;0.90;;;23.10;55.80;;;;;;5070116;28;20209;-64
2022/07/23 12:49:29;;;;;;;2.85;0.73;;;23.10;55.50;;;;;;5071853;28;20410;-64
2022/07/23 12:51:54;;;;;;;1.98;0.90;;;23.10;55.40;;;;;;5071596;28;20093;-64
2022/07/23 12:54:27;;;;;;;1.25;0.70;;;23.10;55.50;;;;;;5071167;28;20127;-64
2022/07/23 12:56:52;;;;;;;3.53;0.90;;;23.10;55.30;;;;;;5072104;28;20044;-64